Nikep, Maryland
Current Conditions -  °F | °C
As of 11:21 AM on Monday 22 Dec 2014 (Local Time) from KCBE Reporting Station
Broken Clouds Broken Clouds  
Wind Chill: 32°   Ceiling: 3100
Heat Index: 32°   Visibility: 7mi
Dew Point: 27°   Wind: 0mph
Humidity: 80%   Direction: NA
Pressure: 30.28"   Gusts: NA
Location:  39.5506°N, 78.9975°W
Report Text: KCBE 221621Z AUTO 00000KT 7SM SCT020 BKN031 00/M03 A3028 RMK AO1
Loading
Personal Weather Stations






























Interactive Weather Map New forecast layout! Learn more

10-Day Weather Forecast

Advertisements
Track Severe Weather on mobile